Time;durP1;ratioP1;P1;durP2;ratioP2;P2;SDS_P1;SDS_P2;PMS_P1;PMS_P2;Temp;Humidity;BMP_temperature;BMP_pressure;BME280_temperature;BME280_humidity;BME280_pressure;Samples;Min_cycle;Max_cycle;Signal;HPM_P1;HPM_P2
2022/11/15 00:01:43;;;;;;;8.25;5.80;;;19.40;99.90;;;;;;4178968;28;20281;-71
2022/11/15 00:03:46;;;;;;;6.50;5.32;;;19.40;99.90;;;;;;4171256;28;20216;-70
2022/11/15 00:05:49;;;;;;;6.32;5.50;;;19.40;99.90;;;;;;4184936;28;20219;-71
2022/11/15 00:07:52;;;;;;;7.53;5.50;;;19.40;99.90;;;;;;4174560;28;20270;-71
2022/11/15 00:09:55;;;;;;;7.50;5.97;;;19.40;99.90;;;;;;4176159;28;20254;-71
2022/11/15 00:11:57;;;;;;;5.90;5.28;;;19.40;99.90;;;;;;4178786;28;20734;-71
2022/11/15 00:14:02;;;;;;;7.10;5.32;;;19.40;99.90;;;;;;4171071;28;20284;-71
2022/11/15 00:16:06;;;;;;;6.03;5.40;;;19.30;99.90;;;;;;4173793;28;20567;-71
2022/11/15 00:18:13;;;;;;;6.15;5.07;;;19.40;99.90;;;;;;4177996;28;20258;-71
2022/11/15 00:20:16;;;;;;;6.28;5.68;;;19.40;99.90;;;;;;4178807;28;20322;-71
2022/11/15 00:22:19;;;;;;;5.95;5.25;;;19.40;99.90;;;;;;4178583;28;20270;-71
2022/11/15 00:24:22;;;;;;;7.53;5.65;;;19.40;99.90;;;;;;4179182;28;20207;-71
2022/11/15 00:26:24;;;;;;;5.97;5.38;;;19.30;99.90;;;;;;4176064;28;20249;-71
2022/11/15 00:28:27;;;;;;;6.30;5.30;;;19.30;99.90;;;;;;4173857;28;20262;-71
2022/11/15 00:30:29;;;;;;;6.63;5.45;;;19.30;99.90;;;;;;4178488;28;20224;-71
2022/11/15 00:32:32;;;;;;;6.88;5.40;;;19.30;99.90;;;;;;4174121;28;20243;-71
2022/11/15 00:34:35;;;;;;;6.85;5.20;;;19.30;99.90;;;;;;4177891;28;20264;-71
2022/11/15 00:36:37;;;;;;;7.07;5.28;;;19.30;99.90;;;;;;4178910;28;20256;-71
2022/11/15 00:38:40;;;;;;;5.90;5.35;;;19.30;99.90;;;;;;4178836;28;20971;-71
2022/11/15 00:40:44;;;;;;;6.35;5.35;;;19.30;99.90;;;;;;4177700;28;20223;-71
2022/11/15 00:42:47;;;;;;;7.18;5.25;;;19.30;99.90;;;;;;4175727;28;20616;-71
2022/11/15 00:44:49;;;;;;;7.07;5.35;;;19.30;99.90;;;;;;4178309;28;20282;-71
2022/11/15 00:46:51;;;;;;;6.20;5.30;;;19.30;99.90;;;;;;4178068;28;20223;-71
2022/11/15 00:48:53;;;;;;;7.40;5.15;;;19.30;99.90;;;;;;4177808;28;20215;-71
2022/11/15 00:50:56;;;;;;;6.65;5.55;;;19.30;99.90;;;;;;4176295;28;20216;-70
2022/11/15 00:52:58;;;;;;;8.02;5.97;;;19.30;99.90;;;;;;4173599;28;20212;-71
2022/11/15 00:55:00;;;;;;;6.35;5.10;;;19.30;99.90;;;;;;4179024;28;20223;-71
2022/11/15 00:57:04;;;;;;;5.38;4.88;;;19.30;99.90;;;;;;4177878;28;20220;-71
2022/11/15 00:59:06;;;;;;;7.72;5.65;;;19.30;99.90;;;;;;4177307;28;20244;-71
2022/11/15 01:01:11;;;;;;;6.30;5.20;;;19.30;99.90;;;;;;4178167;28;20220;-71
2022/11/15 01:03:13;;;;;;;9.20;5.75;;;19.30;99.90;;;;;;4178203;28;20223;-71
2022/11/15 01:05:16;;;;;;;6.15;5.00;;;19.30;99.90;;;;;;4178612;28;20275;-71
2022/11/15 01:07:21;;;;;;;6.57;4.80;;;19.30;99.90;;;;;;4177801;28;20682;-71
2022/11/15 01:09:23;;;;;;;6.72;5.55;;;19.30;99.90;;;;;;4177784;28;20247;-71
2022/11/15 01:11:25;;;;;;;6.05;5.10;;;19.30;99.90;;;;;;4177036;28;20219;-71
2022/11/15 01:13:31;;;;;;;6.30;5.65;;;19.30;99.90;;;;;;4169218;28;20220;-71
2022/11/15 01:15:33;;;;;;;7.45;5.25;;;19.30;99.90;;;;;;4172736;28;20207;-71
2022/11/15 01:17:35;;;;;;;6.25;4.85;;;19.30;99.90;;;;;;4177929;28;20215;-71
2022/11/15 01:19:37;;;;;;;7.15;5.15;;;19.30;99.90;;;;;;4177590;28;20322;-71
2022/11/15 01:21:40;;;;;;;7.63;5.45;;;19.30;99.90;;;;;;4177321;28;20212;-71
2022/11/15 01:23:42;;;;;;;6.82;4.78;;;19.30;99.90;;;;;;4177938;28;20246;-71
2022/11/15 01:25:45;;;;;;;7.38;5.45;;;19.30;99.90;;;;;;4176613;28;20258;-70
2022/11/15 01:27:47;;;;;;;5.60;4.90;;;19.30;99.90;;;;;;4171067;28;20249;-71
2022/11/15 01:29:51;;;;;;;6.43;5.50;;;19.30;99.90;;;;;;4177916;28;20262;-72
2022/11/15 01:31:54;;;;;;;5.47;4.82;;;19.30;99.90;;;;;;4183537;28;20269;-71
2022/11/15 01:33:56;;;;;;;6.15;5.38;;;19.30;99.90;;;;;;4179008;28;20254;-71
2022/11/15 01:35:58;;;;;;;6.13;4.72;;;19.30;99.90;;;;;;4167785;28;20644;-71
2022/11/15 01:38:01;;;;;;;5.45;4.95;;;19.30;99.90;;;;;;4168773;28;20266;-71
2022/11/15 01:40:04;;;;;;;6.25;5.22;;;19.30;99.90;;;;;;4169058;28;20236;-71
2022/11/15 01:42:06;;;;;;;5.43;4.85;;;19.20;99.90;;;;;;4173758;28;20224;-70
2022/11/15 01:44:42;;;;;;;5.47;4.80;;;19.30;99.90;;;;;;4177780;28;20714;-71
2022/11/15 01:46:48;;;;;;;5.70;4.82;;;19.20;99.90;;;;;;4172711;28;20269;-72
2022/11/15 01:48:52;;;;;;;5.63;4.82;;;19.20;99.90;;;;;;4163905;28;20283;-71
2022/11/15 01:50:54;;;;;;;6.82;4.88;;;19.20;99.90;;;;;;4172136;28;20215;-71
2022/11/15 01:52:57;;;;;;;5.97;5.03;;;19.20;99.90;;;;;;4177228;28;20211;-71
2022/11/15 01:55:04;;;;;;;6.35;4.82;;;19.30;99.90;;;;;;4182822;28;20267;-71
2022/11/15 01:57:10;;;;;;;7.32;4.72;;;19.20;99.90;;;;;;4177355;28;20277;-71
2022/11/15 01:59:13;;;;;;;6.35;4.90;;;19.20;99.90;;;;;;4168119;28;20252;-71
2022/11/15 02:01:15;;;;;;;5.47;4.93;;;19.20;99.90;;;;;;4161117;28;20225;-71
2022/11/15 02:03:19;;;;;;;6.03;4.97;;;19.20;99.90;;;;;;4160996;28;20220;-71
2022/11/15 02:05:22;;;;;;;5.82;5.13;;;19.20;99.90;;;;;;4160603;28;20224;-71
2022/11/15 02:07:24;;;;;;;6.03;4.95;;;19.20;99.90;;;;;;4158939;28;20228;-71
2022/11/15 02:09:27;;;;;;;5.88;4.97;;;19.20;99.90;;;;;;4157685;28;20623;-71
2022/11/15 02:11:29;;;;;;;4.40;4.00;;;19.20;99.90;;;;;;4160750;28;20224;-71
2022/11/15 02:13:32;;;;;;;6.43;5.07;;;19.20;99.90;;;;;;4160762;28;20259;-71
2022/11/15 02:15:41;;;;;;;5.15;4.60;;;19.30;99.90;;;;;;4160489;28;20216;-70
2022/11/15 02:17:57;;;;;;;6.32;4.90;;;19.20;99.90;;;;;;4156391;28;20286;-71
2022/11/15 02:20:31;;;;;;;5.97;4.80;;;19.20;99.90;;;;;;4160470;28;20658;-71
2022/11/15 02:22:40;;;;;;;5.03;4.53;;;19.20;99.90;;;;;;4161143;28;20283;-71
2022/11/15 02:24:59;;;;;;;5.45;4.85;;;19.20;99.90;;;;;;4160268;28;20228;-71
2022/11/15 02:27:25;;;;;;;6.25;5.20;;;19.20;99.90;;;;;;4160281;28;20266;-71
2022/11/15 02:29:43;;;;;;;4.78;4.00;;;19.10;99.90;;;;;;4158811;28;20944;-71
2022/11/15 02:31:55;;;;;;;5.55;4.68;;;19.10;99.90;;;;;;4159608;28;20216;-71
2022/11/15 02:34:05;;;;;;;5.38;4.63;;;19.20;99.90;;;;;;4164431;28;20639;-71
2022/11/15 02:36:15;;;;;;;5.95;4.50;;;19.10;99.90;;;;;;4170760;28;20261;-71
2022/11/15 02:38:23;;;;;;;5.70;4.63;;;19.10;99.90;;;;;;4159733;28;20212;-71
2022/11/15 02:40:35;;;;;;;6.20;4.80;;;19.10;99.90;;;;;;4163527;28;20235;-71
2022/11/15 02:45:10;;;;;;;5.22;4.72;;;19.10;99.90;;;;;;4159605;28;20192;-71
2022/11/15 02:47:17;;;;;;;6.63;4.90;;;19.10;99.90;;;;;;4159203;28;20216;-71
2022/11/15 02:49:20;;;;;;;5.53;4.70;;;19.10;99.90;;;;;;4157758;28;20217;-71
2022/11/15 02:51:22;;;;;;;6.65;5.15;;;19.10;99.90;;;;;;4158410;28;20264;-71
2022/11/15 02:53:25;;;;;;;7.35;4.82;;;19.10;99.90;;;;;;4161196;28;20213;-71
2022/11/15 02:55:30;;;;;;;5.55;4.63;;;19.10;99.90;;;;;;4160093;28;20266;-71
2022/11/15 02:57:45;;;;;;;4.38;3.97;;;19.10;99.90;;;;;;4161677;28;20255;-71
2022/11/15 03:00:08;;;;;;;5.22;4.25;;;19.10;99.90;;;;;;4165525;28;20208;-71
2022/11/15 03:02:27;;;;;;;5.57;4.70;;;19.10;99.90;;;;;;4159039;28;20274;-71
2022/11/15 03:04:38;;;;;;;5.20;4.63;;;19.10;99.90;;;;;;4160421;28;20221;-72
2022/11/15 03:06:43;;;;;;;5.90;4.60;;;19.10;99.90;;;;;;4157280;28;20282;-71
2022/11/15 03:08:55;;;;;;;5.55;4.07;;;19.10;99.90;;;;;;4159333;28;20282;-71
2022/11/15 03:11:08;;;;;;;6.75;4.55;;;19.10;99.90;;;;;;4158734;28;20294;-71
2022/11/15 03:13:19;;;;;;;5.10;4.32;;;19.10;99.90;;;;;;4159870;28;20544;-71
2022/11/15 03:15:28;;;;;;;4.85;4.35;;;19.10;99.90;;;;;;4163390;28;20223;-71
2022/11/15 03:17:35;;;;;;;6.82;4.90;;;19.10;99.90;;;;;;4167954;28;20729;-71
2022/11/15 03:19:45;;;;;;;6.22;4.03;;;19.10;99.90;;;;;;4166143;28;20282;-72
2022/11/15 03:21:48;;;;;;;5.80;4.72;;;19.10;99.90;;;;;;4164379;28;20723;-71
2022/11/15 03:23:52;;;;;;;4.63;4.03;;;19.10;99.90;;;;;;4160038;28;20221;-71
2022/11/15 03:25:57;;;;;;;6.10;4.40;;;19.10;99.90;;;;;;4158420;28;20267;-71
2022/11/15 03:28:04;;;;;;;6.00;4.22;;;19.10;99.90;;;;;;4162863;28;20220;-71
2022/11/15 03:30:09;;;;;;;6.00;4.22;;;19.10;99.90;;;;;;4162747;28;20664;-71
2022/11/15 03:32:15;;;;;;;5.82;4.57;;;19.10;99.90;;;;;;4162949;28;20642;-71
2022/11/15 03:34:25;;;;;;;5.55;4.15;;;19.10;99.90;;;;;;4173436;28;20212;-72
2022/11/15 03:36:28;;;;;;;4.80;4.25;;;19.10;99.90;;;;;;4168102;28;20216;-72
2022/11/15 03:38:34;;;;;;;5.82;4.30;;;19.10;99.90;;;;;;4164053;28;20220;-71
2022/11/15 03:40:40;;;;;;;5.22;3.92;;;19.10;99.90;;;;;;4160902;28;20272;-71
2022/11/15 03:42:47;;;;;;;5.68;4.10;;;19.10;99.90;;;;;;4171796;28;20251;-71
2022/11/15 03:44:55;;;;;;;5.20;4.40;;;19.10;99.90;;;;;;4161725;28;20223;-71
2022/11/15 03:47:03;;;;;;;4.25;3.85;;;19.10;99.90;;;;;;4167072;28;20315;-71
2022/11/15 03:49:09;;;;;;;4.05;3.65;;;19.00;99.90;;;;;;4157163;28;20944;-71
2022/11/15 03:51:13;;;;;;;4.75;4.15;;;19.10;99.90;;;;;;4160892;28;20286;-71
2022/11/15 03:53:15;;;;;;;4.32;3.92;;;19.00;99.90;;;;;;4171361;28;20223;-71
2022/11/15 03:55:20;;;;;;;5.28;4.03;;;19.10;99.90;;;;;;4167768;28;20227;-71
2022/11/15 03:57:22;;;;;;;5.60;4.15;;;19.00;99.90;;;;;;4162862;28;20597;-71
2022/11/15 03:59:24;;;;;;;4.28;3.78;;;19.00;99.90;;;;;;4161319;28;20295;-72
2022/11/15 04:01:27;;;;;;;5.85;4.07;;;19.00;99.90;;;;;;4160834;28;20716;-71
2022/11/15 04:03:29;;;;;;;5.00;3.70;;;19.10;99.90;;;;;;4160976;28;20669;-71
2022/11/15 04:05:31;;;;;;;5.63;4.28;;;19.00;99.90;;;;;;4161596;28;20664;-71
2022/11/15 04:07:35;;;;;;;4.90;4.25;;;19.00;99.90;;;;;;4161382;28;20220;-71
2022/11/15 04:10:01;;;;;;;4.55;4.05;;;19.00;99.90;;;;;;4160756;28;20212;-71
2022/11/15 04:12:00;;;;;;;4.18;3.70;;;19.00;99.90;;;;;;4160472;28;20220;-71
2022/11/15 04:14:03;;;;;;;4.55;3.83;;;19.00;99.90;;;;;;4160865;28;20221;-71
2022/11/15 04:16:05;;;;;;;4.78;4.15;;;19.00;99.90;;;;;;4159196;28;20216;-71
2022/11/15 04:18:10;;;;;;;4.63;3.40;;;19.00;99.90;;;;;;4160906;28;20220;-71
2022/11/15 04:24:57;;;;;;;4.65;3.90;;;19.00;99.90;;;;;;4160534;28;20506;-71
2022/11/15 04:26:59;;;;;;;4.22;3.83;;;19.00;99.90;;;;;;4161723;28;20621;-71
2022/11/15 04:31:21;;;;;;;5.78;3.80;;;19.00;99.90;;;;;;4158708;28;20204;-71
2022/11/15 04:33:24;;;;;;;4.63;3.55;;;19.00;99.90;;;;;;4158976;28;20225;-72
2022/11/15 04:35:26;;;;;;;4.05;3.63;;;19.00;99.90;;;;;;4160539;28;20220;-71
2022/11/15 04:37:27;;;;;;;6.63;3.70;;;19.00;99.90;;;;;;4158559;28;20682;-71
2022/11/15 04:39:48;;;;;;;4.60;3.80;;;19.00;99.90;;;;;;4160765;28;20290;-72
2022/11/15 04:41:51;;;;;;;4.85;3.72;;;19.00;99.90;;;;;;4159319;28;20298;-72
2022/11/15 04:43:53;;;;;;;5.07;3.85;;;18.90;99.90;;;;;;4160644;28;20279;-71
2022/11/15 04:45:56;;;;;;;4.00;3.35;;;19.00;99.90;;;;;;4160408;28;20217;-71
2022/11/15 04:47:58;;;;;;;6.25;4.05;;;19.00;99.90;;;;;;4157874;28;20220;-71
2022/11/15 04:50:00;;;;;;;4.75;3.45;;;18.90;99.90;;;;;;4157430;28;20212;-72
2022/11/15 04:52:03;;;;;;;5.18;3.38;;;18.90;99.90;;;;;;4160568;28;20301;-71
2022/11/15 04:54:05;;;;;;;4.50;3.47;;;18.90;99.90;;;;;;4160677;28;20221;-71
2022/11/15 04:56:09;;;;;;;4.80;3.88;;;18.90;99.90;;;;;;4160217;28;20220;-71
2022/11/15 04:58:13;;;;;;;5.47;3.50;;;18.90;99.90;;;;;;4163891;28;20293;-71
2022/11/15 05:00:17;;;;;;;5.20;3.40;;;18.90;99.90;;;;;;4176796;28;20246;-71
2022/11/15 05:02:19;;;;;;;4.72;3.35;;;18.90;99.90;;;;;;4176704;28;20334;-72
2022/11/15 05:04:21;;;;;;;3.85;3.45;;;18.90;99.90;;;;;;4177482;28;20229;-71
2022/11/15 05:06:23;;;;;;;3.83;3.30;;;18.90;99.90;;;;;;4175468;28;20591;-71
2022/11/15 05:08:25;;;;;;;4.22;3.83;;;18.90;99.90;;;;;;4176527;28;20228;-71
2022/11/15 05:10:28;;;;;;;5.28;3.40;;;18.90;99.90;;;;;;4176132;28;20219;-71
2022/11/15 05:12:31;;;;;;;4.18;3.25;;;18.90;99.90;;;;;;4176094;28;20277;-71
2022/11/15 05:14:34;;;;;;;5.03;3.97;;;18.90;99.90;;;;;;4176675;28;20235;-71
2022/11/15 05:16:37;;;;;;;4.50;3.42;;;18.90;99.90;;;;;;4177263;28;20278;-71
2022/11/15 05:18:40;;;;;;;3.85;3.20;;;18.90;99.90;;;;;;4176416;28;20261;-71
2022/11/15 05:20:42;;;;;;;4.70;3.13;;;18.90;99.90;;;;;;4176473;28;20228;-71
2022/11/15 05:22:45;;;;;;;3.97;3.30;;;18.90;99.90;;;;;;4173741;28;20219;-71
2022/11/15 05:24:47;;;;;;;4.07;3.45;;;18.90;99.90;;;;;;4175250;28;20219;-71
2022/11/15 05:26:49;;;;;;;4.35;3.15;;;18.80;99.90;;;;;;4177255;28;20227;-72
2022/11/15 05:28:55;;;;;;;4.45;3.17;;;18.90;99.90;;;;;;4176187;28;20212;-72
2022/11/15 05:31:02;;;;;;;3.90;3.50;;;18.80;99.90;;;;;;4175307;28;20252;-71
2022/11/15 05:33:04;;;;;;;4.35;3.35;;;18.90;99.90;;;;;;4177002;28;20215;-71
2022/11/15 05:35:09;;;;;;;4.00;2.97;;;18.80;99.90;;;;;;4176204;28;20289;-71
2022/11/15 05:37:11;;;;;;;4.82;2.83;;;18.80;99.90;;;;;;4175903;28;20281;-71
2022/11/15 05:39:15;;;;;;;5.22;3.33;;;18.80;99.90;;;;;;4175147;28;20227;-72
2022/11/15 05:41:21;;;;;;;3.42;3.00;;;18.80;99.90;;;;;;4176237;28;20615;-72
2022/11/15 05:43:24;;;;;;;4.22;3.45;;;18.80;99.90;;;;;;4176044;28;20220;-71
2022/11/15 05:45:29;;;;;;;5.45;3.05;;;18.80;99.90;;;;;;4176675;28;20212;-71
2022/11/15 05:47:32;;;;;;;4.18;2.72;;;18.80;99.90;;;;;;4175292;28;20223;-71
2022/11/15 05:49:37;;;;;;;3.72;3.00;;;18.80;99.90;;;;;;4176005;28;20262;-71
2022/11/15 05:51:40;;;;;;;4.07;3.13;;;18.80;99.90;;;;;;4175687;28;20808;-71
2022/11/15 05:53:43;;;;;;;3.80;3.30;;;18.80;99.90;;;;;;4175842;28;20303;-71
2022/11/15 05:55:45;;;;;;;4.75;3.00;;;18.80;99.90;;;;;;4176154;28;20219;-71
2022/11/15 05:57:48;;;;;;;3.13;2.80;;;18.80;99.90;;;;;;4174590;28;20270;-72
2022/11/15 05:59:50;;;;;;;3.88;3.17;;;18.80;99.90;;;;;;4161167;28;20267;-72
2022/11/15 06:01:54;;;;;;;4.13;3.00;;;18.80;99.90;;;;;;4160110;28;20294;-71
2022/11/15 06:03:56;;;;;;;3.97;3.20;;;18.80;99.90;;;;;;4161140;28;20220;-72
2022/11/15 06:05:59;;;;;;;4.07;2.78;;;18.80;99.90;;;;;;4161408;28;20220;-72
2022/11/15 06:08:01;;;;;;;3.50;2.72;;;18.80;99.90;;;;;;4159494;28;20641;-71
2022/11/15 06:10:04;;;;;;;3.70;2.95;;;18.90;99.90;;;;;;4159007;28;20212;-71
2022/11/15 06:12:07;;;;;;;3.42;2.78;;;18.90;99.90;;;;;;4161693;28;20244;-72
2022/11/15 06:14:09;;;;;;;3.03;2.60;;;18.90;99.90;;;;;;4159204;28;20221;-71
2022/11/15 06:16:11;;;;;;;3.90;2.95;;;18.90;99.90;;;;;;4161344;28;20577;-71
2022/11/15 06:18:15;;;;;;;2.75;2.50;;;18.90;99.90;;;;;;4162183;28;20247;-72
2022/11/15 06:20:18;;;;;;;3.63;2.85;;;18.90;99.90;;;;;;4162645;28;20216;-72
2022/11/15 06:22:20;;;;;;;2.55;2.28;;;18.90;99.90;;;;;;4159757;28;20259;-72
2022/11/15 06:24:22;;;;;;;3.22;2.45;;;18.90;99.90;;;;;;4159852;28;20224;-71
2022/11/15 06:26:25;;;;;;;2.83;2.53;;;18.90;99.90;;;;;;4161286;28;20228;-72
2022/11/15 06:28:30;;;;;;;3.83;2.85;;;19.00;99.90;;;;;;4161593;28;20278;-72
2022/11/15 06:30:32;;;;;;;3.92;2.45;;;19.00;99.90;;;;;;4159681;28;20291;-72
2022/11/15 06:32:34;;;;;;;4.65;2.60;;;19.00;99.90;;;;;;4162340;28;20636;-72
2022/11/15 06:34:38;;;;;;;5.10;2.95;;;19.00;99.90;;;;;;4161173;28;20275;-72
2022/11/15 06:36:40;;;;;;;5.35;2.40;;;19.00;99.90;;;;;;4162512;28;20704;-72
2022/11/15 06:38:42;;;;;;;7.43;2.80;;;19.10;99.90;;;;;;4161378;28;20641;-72
2022/11/15 06:40:45;;;;;;;2.72;2.40;;;19.10;99.90;;;;;;4161540;28;20220;-72
2022/11/15 06:42:47;;;;;;;4.13;2.50;;;19.00;99.90;;;;;;4161629;28;20248;-72
2022/11/15 06:44:49;;;;;;;3.13;2.50;;;19.10;99.90;;;;;;4161145;28;20259;-72
2022/11/15 06:46:52;;;;;;;3.58;2.50;;;19.10;99.90;;;;;;4160401;28;20220;-71
2022/11/15 06:48:54;;;;;;;3.65;2.75;;;19.10;99.90;;;;;;4158905;28;20279;-72
2022/11/15 06:50:59;;;;;;;2.55;2.10;;;19.10;99.90;;;;;;4161634;28;20229;-72
2022/11/15 06:53:04;;;;;;;4.43;2.60;;;19.10;99.90;;;;;;4164746;28;20224;-72
2022/11/15 06:55:08;;;;;;;3.47;2.53;;;19.10;99.90;;;;;;4161504;28;20267;-72
2022/11/15 06:57:11;;;;;;;2.88;2.10;;;19.10;99.90;;;;;;4162547;28;20221;-72
2022/11/15 06:59:13;;;;;;;3.83;2.13;;;19.10;99.90;;;;;;4161169;28;20296;-72
2022/11/15 07:01:15;;;;;;;3.20;2.17;;;19.20;99.90;;;;;;4164530;28;20238;-71
2022/11/15 07:03:18;;;;;;;3.58;2.08;;;19.20;99.90;;;;;;4162413;28;20338;-71
2022/11/15 07:05:20;;;;;;;3.42;2.55;;;19.20;99.90;;;;;;4162015;28;20279;-71
2022/11/15 07:07:24;;;;;;;3.70;2.25;;;19.20;99.90;;;;;;4162120;28;20625;-71
2022/11/15 07:09:26;;;;;;;3.13;2.10;;;19.30;99.90;;;;;;4162150;28;20343;-71
2022/11/15 07:11:29;;;;;;;3.20;2.28;;;19.30;99.90;;;;;;4161930;28;20267;-72
2022/11/15 07:13:33;;;;;;;3.33;2.17;;;19.30;99.90;;;;;;4162109;28;20638;-72
2022/11/15 07:15:35;;;;;;;3.35;1.85;;;19.30;99.90;;;;;;4161877;28;20894;-72
2022/11/15 07:17:38;;;;;;;4.28;2.03;;;19.30;99.90;;;;;;4162715;28;20619;-72
2022/11/15 07:19:40;;;;;;;2.70;2.15;;;19.30;99.90;;;;;;4162040;28;20244;-72
2022/11/15 07:21:42;;;;;;;3.45;1.95;;;19.30;99.90;;;;;;4158496;28;20213;-72
2022/11/15 07:23:46;;;;;;;3.05;2.53;;;19.40;99.90;;;;;;4162056;28;20224;-72
2022/11/15 07:25:48;;;;;;;2.60;2.05;;;19.40;99.90;;;;;;4162004;28;20221;-72
2022/11/15 07:27:56;;;;;;;2.42;2.10;;;19.40;99.90;;;;;;4162293;28;20280;-71
2022/11/15 07:29:58;;;;;;;2.40;2.10;;;19.40;99.90;;;;;;4161366;28;20278;-71
2022/11/15 07:32:00;;;;;;;2.30;2.03;;;19.40;99.90;;;;;;4163104;28;20228;-72
2022/11/15 07:34:03;;;;;;;3.45;2.05;;;19.40;99.90;;;;;;4161816;28;20217;-72
2022/11/15 07:36:07;;;;;;;2.25;1.90;;;19.40;99.90;;;;;;4161269;28;20229;-71
2022/11/15 07:38:09;;;;;;;2.78;2.05;;;19.40;99.90;;;;;;4161678;28;20224;-72
2022/11/15 07:40:14;;;;;;;4.28;2.00;;;19.50;99.90;;;;;;4162766;28;20204;-72
2022/11/15 07:44:36;;;;;;;2.00;1.73;;;19.50;99.90;;;;;;4159687;28;20208;-71
2022/11/15 07:46:38;;;;;;;3.65;2.00;;;19.50;99.90;;;;;;4161559;28;20643;-71
2022/11/15 07:48:40;;;;;;;2.42;2.05;;;19.50;99.90;;;;;;4162215;28;20282;-71
2022/11/15 07:50:43;;;;;;;3.92;2.08;;;19.50;99.90;;;;;;4159736;28;20298;-78
2022/11/15 07:52:46;;;;;;;2.15;1.95;;;19.50;99.90;;;;;;4160474;28;20208;-73
2022/11/15 07:54:48;;;;;;;5.35;2.00;;;19.50;99.90;;;;;;4157687;28;20279;-73
2022/11/15 07:56:52;;;;;;;3.58;2.10;;;19.40;99.90;;;;;;4160537;28;20640;-72
2022/11/15 07:58:54;;;;;;;3.63;1.95;;;19.50;99.90;;;;;;4169388;28;20227;-72
2022/11/15 08:00:56;;;;;;;4.88;2.30;;;19.60;99.90;;;;;;4175563;28;20224;-73
2022/11/15 08:03:07;;;;;;;5.20;1.92;;;19.60;99.90;;;;;;4175293;28;20240;-73
2022/11/15 08:05:09;;;;;;;3.53;2.03;;;19.70;99.90;;;;;;4176559;28;20302;-73
2022/11/15 08:07:12;;;;;;;4.40;1.67;;;19.60;99.90;;;;;;4173980;28;20715;-72
2022/11/15 08:09:14;;;;;;;3.58;1.90;;;19.70;99.90;;;;;;4175955;28;20680;-73
2022/11/15 08:11:16;;;;;;;5.15;1.92;;;19.70;99.90;;;;;;4178068;28;20223;-73
2022/11/15 08:13:20;;;;;;;4.53;1.92;;;19.80;99.90;;;;;;4176459;28;20260;-74
2022/11/15 08:15:23;;;;;;;3.05;1.80;;;19.80;99.90;;;;;;4177785;28;20274;-73
2022/11/15 08:17:26;;;;;;;3.15;1.65;;;19.80;99.90;;;;;;4178853;28;20544;-73
2022/11/15 08:19:28;;;;;;;3.25;1.90;;;19.90;99.90;;;;;;4174284;28;20664;-72
2022/11/15 08:21:30;;;;;;;5.78;1.85;;;19.90;99.90;;;;;;4175298;28;20267;-72
2022/11/15 08:23:33;;;;;;;3.30;1.75;;;19.80;99.90;;;;;;4177001;28;20231;-72
2022/11/15 08:25:36;;;;;;;3.85;1.80;;;19.90;99.90;;;;;;4171259;28;20207;-73
2022/11/15 08:27:38;;;;;;;3.25;1.83;;;19.90;99.90;;;;;;4175207;28;20280;-73
2022/11/15 08:29:42;;;;;;;4.18;1.73;;;19.90;99.90;;;;;;4169351;28;20744;-73
2022/11/15 08:31:45;;;;;;;6.75;2.20;;;19.80;99.90;;;;;;4169792;28;20219;-72
2022/11/15 08:33:47;;;;;;;3.88;2.13;;;19.80;99.90;;;;;;4177134;28;20208;-72
2022/11/15 08:35:49;;;;;;;3.33;1.85;;;19.80;99.90;;;;;;4175512;28;20216;-72
2022/11/15 08:37:53;;;;;;;6.78;1.75;;;19.80;99.90;;;;;;4176185;28;20215;-73
2022/11/15 08:39:56;;;;;;;5.43;1.63;;;19.80;99.90;;;;;;4171571;28;20223;-73
2022/11/15 08:41:58;;;;;;;8.88;1.85;;;19.80;99.90;;;;;;4176091;28;20212;-74
2022/11/15 08:44:00;;;;;;;5.10;1.80;;;19.90;99.90;;;;;;4174371;28;20621;-73
2022/11/15 08:46:04;;;;;;;4.70;1.83;;;20.00;99.90;;;;;;4173910;28;20216;-72
2022/11/15 08:48:07;;;;;;;10.65;2.25;;;20.10;99.90;;;;;;4173293;28;21209;-72
2022/11/15 08:50:10;;;;;;;5.20;1.92;;;20.10;99.90;;;;;;4174572;28;20460;-71
2022/11/15 08:52:12;;;;;;;6.22;1.73;;;20.10;99.90;;;;;;4170369;28;20228;-72
2022/11/15 08:54:14;;;;;;;5.57;1.48;;;20.10;99.90;;;;;;4177929;28;20258;-73
2022/11/15 08:56:17;;;;;;;4.88;1.50;;;20.20;99.90;;;;;;4173108;28;20212;-72
2022/11/15 08:58:19;;;;;;;5.43;1.70;;;20.20;99.90;;;;;;4166871;28;20779;-74
2022/11/15 09:00:21;;;;;;;8.65;1.90;;;20.20;99.90;;;;;;4154356;28;20267;-74
2022/11/15 09:02:25;;;;;;;4.70;1.70;;;20.30;99.90;;;;;;4151757;28;20290;-74
2022/11/15 09:04:29;;;;;;;4.90;1.88;;;20.30;99.90;;;;;;4155711;28;20259;-73
2022/11/15 09:06:32;;;;;;;6.72;2.20;;;20.30;99.90;;;;;;4160276;28;20292;-73
2022/11/15 09:08:34;;;;;;;6.28;1.83;;;20.30;99.90;;;;;;4155189;28;20208;-73
2022/11/15 09:10:36;;;;;;;5.75;1.65;;;20.30;99.90;;;;;;4153848;28;20282;-72
2022/11/15 09:12:39;;;;;;;7.45;1.70;;;20.30;99.90;;;;;;4154302;28;20901;-74
2022/11/15 09:14:41;;;;;;;8.40;2.28;;;20.30;99.90;;;;;;4155373;28;20220;-73
2022/11/15 09:16:43;;;;;;;4.15;1.70;;;20.20;99.90;;;;;;4157541;28;20264;-73
2022/11/15 09:18:47;;;;;;;2.17;1.35;;;20.30;99.90;;;;;;4156124;28;20664;-73
2022/11/15 09:20:49;;;;;;;4.57;2.05;;;20.30;99.90;;;;;;4156832;28;20271;-74
2022/11/15 09:22:51;;;;;;;2.33;1.63;;;20.30;99.90;;;;;;4154632;28;20312;-73
2022/11/15 09:24:54;;;;;;;3.70;1.50;;;20.40;99.90;;;;;;4154945;28;20278;-73
2022/11/15 09:26:56;;;;;;;3.80;1.67;;;20.40;99.90;;;;;;4158132;28;20276;-76
2022/11/15 09:29:01;;;;;;;3.90;1.58;;;20.40;99.90;;;;;;4156677;28;20209;-75
2022/11/15 09:31:05;;;;;;;2.40;1.63;;;20.40;99.90;;;;;;4161666;28;20213;-75
2022/11/15 09:33:08;;;;;;;6.20;1.85;;;20.50;99.90;;;;;;4155682;28;20362;-73
2022/11/15 09:35:12;;;;;;;5.60;1.42;;;20.40;99.90;;;;;;4163030;28;20641;-74
2022/11/15 09:37:14;;;;;;;2.95;1.52;;;20.50;99.90;;;;;;4165484;28;20224;-72
2022/11/15 09:39:17;;;;;;;12.40;1.67;;;20.50;99.90;;;;;;4157793;28;20625;-72
2022/11/15 09:41:35;;;;;;;4.22;1.48;;;20.50;99.90;;;;;;4157238;28;20234;-72
2022/11/15 09:43:48;;;;;;;3.58;1.77;;;20.50;99.90;;;;;;4153588;28;20279;-72
2022/11/15 09:46:02;;;;;;;3.63;1.38;;;20.50;99.90;;;;;;4161038;28;20273;-72
2022/11/15 09:48:35;;;;;;;9.02;1.70;;;20.60;99.90;;;;;;4160509;28;20636;-72
2022/11/15 09:50:46;;;;;;;4.05;1.65;;;20.70;99.90;;;;;;4151871;28;20217;-72
2022/11/15 09:52:50;;;;;;;5.15;1.83;;;20.80;99.90;;;;;;4155665;28;20271;-73
2022/11/15 09:54:54;;;;;;;2.92;1.50;;;20.90;99.90;;;;;;4154452;28;20328;-71
2022/11/15 09:57:03;;;;;;;2.90;1.52;;;20.90;99.90;;;;;;4151194;28;20283;-72
2022/11/15 09:59:18;;;;;;;4.47;1.75;;;20.80;99.90;;;;;;4166153;28;20235;-72
2022/11/15 10:01:33;;;;;;;4.57;1.65;;;20.90;99.90;;;;;;4170116;28;20216;-71
2022/11/15 10:03:37;;;;;;;4.18;1.65;;;21.00;99.90;;;;;;4172798;28;20254;-71
2022/11/15 10:05:43;;;;;;;4.15;1.85;;;21.00;99.90;;;;;;4170226;28;20257;-71
2022/11/15 10:07:55;;;;;;;6.78;1.60;;;21.00;99.90;;;;;;4174588;28;20624;-73
2022/11/15 10:10:03;;;;;;;8.20;2.33;;;21.00;99.90;;;;;;4166288;28;20722;-72
2022/11/15 10:12:05;;;;;;;4.47;1.70;;;21.00;99.90;;;;;;4171141;28;20222;-73
2022/11/15 10:14:12;;;;;;;4.63;2.30;;;21.00;99.90;;;;;;4173588;28;20469;-71
2022/11/15 10:16:30;;;;;;;4.38;2.00;;;21.10;99.90;;;;;;4169729;28;20651;-72
2022/11/15 10:18:36;;;;;;;7.93;2.28;;;21.10;99.90;;;;;;4169186;28;20224;-72
2022/11/15 10:20:49;;;;;;;5.70;1.83;;;21.10;99.90;;;;;;4162516;28;20280;-72
2022/11/15 10:22:54;;;;;;;10.65;1.80;;;21.20;99.90;;;;;;4171214;28;20265;-72
2022/11/15 10:25:22;;;;;;;10.15;1.75;;;21.20;99.90;;;;;;4178209;28;20304;-71
2022/11/15 10:27:24;;;;;;;4.93;1.55;;;21.30;99.90;;;;;;4174068;28;20219;-71
2022/11/15 10:29:27;;;;;;;5.38;1.60;;;21.40;99.90;;;;;;4173694;28;20219;-71
2022/11/15 10:31:30;;;;;;;4.00;1.52;;;21.40;99.90;;;;;;4175985;28;20278;-71
2022/11/15 10:33:34;;;;;;;7.15;1.65;;;21.30;99.90;;;;;;4174463;28;20444;-79
2022/11/15 10:35:36;;;;;;;4.28;1.55;;;21.40;99.90;;;;;;4177020;28;20661;-72
2022/11/15 10:37:40;;;;;;;6.03;2.15;;;21.40;99.90;;;;;;4180023;28;20648;-72
2022/11/15 10:39:43;;;;;;;4.13;1.70;;;21.50;99.90;;;;;;4174391;28;20214;-71
2022/11/15 10:41:48;;;;;;;3.35;1.80;;;21.50;99.90;;;;;;4179610;28;20219;-70
2022/11/15 10:44:15;;;;;;;6.75;1.77;;;21.60;99.90;;;;;;4184500;28;20239;-72
2022/11/15 10:46:21;;;;;;;5.70;1.58;;;21.60;99.90;;;;;;4176032;28;20249;-71
2022/11/15 10:48:26;;;;;;;3.85;1.67;;;21.60;99.90;;;;;;4174824;28;20220;-73
2022/11/15 10:50:30;;;;;;;5.00;1.73;;;21.60;99.90;;;;;;4174530;28;20211;-72
2022/11/15 10:52:35;;;;;;;6.88;1.90;;;21.60;99.90;;;;;;4177688;28;20223;-72
2022/11/15 10:54:44;;;;;;;7.72;1.70;;;21.70;99.90;;;;;;4176599;28;20215;-71
2022/11/15 10:56:51;;;;;;;6.00;1.70;;;21.60;99.90;;;;;;4176054;28;20216;-71
2022/11/15 10:58:56;;;;;;;10.82;2.20;;;21.60;99.90;;;;;;4169091;28;20285;-71
2022/11/15 11:01:10;;;;;;;5.60;1.80;;;21.70;99.90;;;;;;4170187;28;20207;-72